createdAt,value
2022-10-10T00:00:13.570Z,12.00
2022-10-10T00:00:45.919Z,12.00
2022-10-10T00:01:18.957Z,12.00
2022-10-10T00:01:51.729Z,12.00
2022-10-10T00:02:23.575Z,12.00
2022-10-10T00:02:55.338Z,12.00
2022-10-10T00:03:27.141Z,12.00
2022-10-10T00:04:00.522Z,12.00
2022-10-10T00:04:32.324Z,12.00
2022-10-10T00:05:04.805Z,12.00
2022-10-10T00:05:39.222Z,12.00
2022-10-10T00:06:12.002Z,12.10
2022-10-10T00:06:43.749Z,12.10
2022-10-10T00:07:16.503Z,12.00
2022-10-10T00:07:48.321Z,12.00
2022-10-10T00:08:21.497Z,12.10
2022-10-10T00:08:54.462Z,12.10
2022-10-10T00:09:26.230Z,12.10
2022-10-10T00:09:58.200Z,12.10
2022-10-10T00:10:31.611Z,12.10
2022-10-10T00:11:03.790Z,12.10
2022-10-10T00:11:36.248Z,12.10
2022-10-10T00:12:08.988Z,12.10
2022-10-10T00:12:40.842Z,12.10
2022-10-10T00:13:12.718Z,12.10
2022-10-10T00:13:45.891Z,12.10
2022-10-10T00:14:17.756Z,12.10
2022-10-10T00:14:49.529Z,12.10
2022-10-10T00:15:21.650Z,12.10
2022-10-10T00:15:54.401Z,12.10
2022-10-10T00:16:26.260Z,12.10
2022-10-10T00:16:58.049Z,12.10
2022-10-10T00:17:30.823Z,12.10
2022-10-10T00:18:03.620Z,12.10
2022-10-10T00:18:35.836Z,12.10
2022-10-10T00:19:08.692Z,12.10
2022-10-10T00:19:40.477Z,12.10
2022-10-10T00:20:14.780Z,12.10
2022-10-10T00:20:47.522Z,12.20
2022-10-10T00:21:19.564Z,12.20
2022-10-10T00:21:52.305Z,12.10
2022-10-10T00:22:24.185Z,12.20
2022-10-10T00:22:56.020Z,12.20
2022-10-10T00:23:30.189Z,12.20
2022-10-10T00:24:02.032Z,12.20
2022-10-10T00:24:33.776Z,12.20
2022-10-10T00:25:08.354Z,12.20
2022-10-10T00:25:40.136Z,12.20
2022-10-10T00:26:16.265Z,12.20
2022-10-10T00:26:51.465Z,12.20
2022-10-10T00:27:23.263Z,12.20
2022-10-10T00:27:55.364Z,12.20
2022-10-10T00:28:28.449Z,12.20
2022-10-10T00:29:00.640Z,12.30
2022-10-10T00:29:32.422Z,12.30
2022-10-10T00:30:07.008Z,12.30
2022-10-10T00:30:38.855Z,12.30
2022-10-10T00:31:10.780Z,12.30
2022-10-10T00:31:43.553Z,12.30
2022-10-10T00:32:15.363Z,12.30
2022-10-10T00:32:47.519Z,12.30
2022-10-10T00:33:20.698Z,12.30
2022-10-10T00:33:52.609Z,12.30
2022-10-10T00:34:24.628Z,12.30
2022-10-10T00:34:56.407Z,12.30
2022-10-10T00:35:29.776Z,12.30
2022-10-10T00:36:01.703Z,12.30
2022-10-10T00:36:33.472Z,12.30
2022-10-10T00:37:06.230Z,12.30
2022-10-10T00:37:38.042Z,12.30
2022-10-10T00:38:10.505Z,12.30
2022-10-10T00:38:44.701Z,12.30
2022-10-10T00:39:16.494Z,12.30
2022-10-10T00:39:48.414Z,12.30
2022-10-10T00:40:20.448Z,12.30
2022-10-10T00:40:55.099Z,12.40
2022-10-10T00:41:27.102Z,12.30
2022-10-10T00:41:58.901Z,12.30
2022-10-10T00:42:31.656Z,12.30
2022-10-10T00:43:03.458Z,12.30
2022-10-10T00:43:35.874Z,12.30
2022-10-10T00:44:09.647Z,12.30
2022-10-10T00:44:43.084Z,12.30
2022-10-10T00:45:30.935Z,12.30
2022-10-10T00:46:03.677Z,12.30
2022-10-10T00:46:35.947Z,12.20
2022-10-10T00:47:08.116Z,12.20
2022-10-10T00:47:40.833Z,12.20
2022-10-10T00:48:15.201Z,12.20
2022-10-10T00:48:47.023Z,12.20
2022-10-10T00:49:23.981Z,12.10
2022-10-10T00:49:55.774Z,12.10
2022-10-10T00:50:28.687Z,12.10
2022-10-10T00:51:05.008Z,12.10
2022-10-10T00:51:37.802Z,12.10
2022-10-10T00:52:11.110Z,12.10
2022-10-10T00:52:42.989Z,12.10
2022-10-10T00:53:18.623Z,12.20
2022-10-10T00:53:55.423Z,12.30
2022-10-10T00:54:29.082Z,12.20
2022-10-10T00:55:01.816Z,12.20
2022-10-10T00:55:34.569Z,12.20
2022-10-10T00:56:07.726Z,12.20
2022-10-10T00:56:45.019Z,12.20
2022-10-10T00:57:16.844Z,12.20
2022-10-10T00:57:50.190Z,12.30
2022-10-10T00:58:23.720Z,12.30
2022-10-10T00:59:00.273Z,12.30
2022-10-10T00:59:33.759Z,12.30
2022-10-10T01:00:07.570Z,12.30
2022-10-10T01:00:39.374Z,12.30
2022-10-10T01:01:11.397Z,12.30
2022-10-10T01:01:44.338Z,12.30
2022-10-10T01:02:16.102Z,12.30
2022-10-10T01:02:48.263Z,12.30
2022-10-10T01:03:21.269Z,12.30
2022-10-10T01:03:56.837Z,12.30
2022-10-10T01:04:32.946Z,12.20
2022-10-10T01:05:06.437Z,12.30
2022-10-10T01:05:39.429Z,12.20
2022-10-10T01:06:11.480Z,12.20
2022-10-10T01:06:44.258Z,12.20
2022-10-10T01:07:20.462Z,12.20
2022-10-10T01:07:52.380Z,12.10
2022-10-10T01:08:25.225Z,12.10
2022-10-10T01:08:58.753Z,12.10
2022-10-10T01:09:32.014Z,12.10
2022-10-10T01:10:09.885Z,12.10
2022-10-10T01:10:54.071Z,12.10
2022-10-10T01:11:42.074Z,12.10
2022-10-10T01:12:20.692Z,12.10
2022-10-10T01:13:03.108Z,12.10
2022-10-10T01:13:43.958Z,12.10
2022-10-10T01:14:29.031Z,12.10
2022-10-10T01:15:09.204Z,12.10
2022-10-10T01:15:49.961Z,12.10
2022-10-10T01:16:27.494Z,12.10
2022-10-10T01:17:06.596Z,12.10
2022-10-10T01:17:42.999Z,12.10
2022-10-10T01:18:23.596Z,12.10
2022-10-10T01:19:05.206Z,12.10
2022-10-10T01:19:59.465Z,11.90
2022-10-10T01:20:58.712Z,12.00
2022-10-10T01:21:38.416Z,11.90
2022-10-10T01:22:21.347Z,11.90
2022-10-10T01:23:12.362Z,11.90
2022-10-10T01:24:26.021Z,11.90
2022-10-10T01:25:14.499Z,11.90
2022-10-10T01:26:01.209Z,11.80
2022-10-10T01:27:09.119Z,11.90
2022-10-10T01:27:44.985Z,11.90
2022-10-10T01:28:30.878Z,11.90
2022-10-10T01:29:07.708Z,11.90
2022-10-10T01:29:43.679Z,12.00
2022-10-10T01:30:19.764Z,11.80
2022-10-10T01:30:51.678Z,11.80
2022-10-10T01:31:26.289Z,11.80
2022-10-10T01:32:04.953Z,11.80
2022-10-10T01:32:43.781Z,11.70
2022-10-10T01:33:22.024Z,11.70
2022-10-10T01:34:03.477Z,11.70
2022-10-10T01:34:46.109Z,11.70
2022-10-10T01:35:40.005Z,11.70
2022-10-10T01:36:21.905Z,11.60
2022-10-10T01:36:59.564Z,11.60
2022-10-10T01:37:40.685Z,11.60
2022-10-10T01:38:23.202Z,11.60
2022-10-10T01:39:02.208Z,11.60
2022-10-10T01:39:42.914Z,11.60
2022-10-10T01:40:29.743Z,11.60
2022-10-10T01:41:06.290Z,11.50
2022-10-10T01:41:43.206Z,11.50
2022-10-10T01:42:21.105Z,11.50
2022-10-10T01:42:55.470Z,11.50
2022-10-10T01:43:30.552Z,11.50
2022-10-10T01:44:03.394Z,11.50
2022-10-10T01:44:35.190Z,11.60
2022-10-10T01:45:07.878Z,11.60
2022-10-10T01:45:45.217Z,11.60
2022-10-10T01:46:18.665Z,11.60
2022-10-10T01:46:50.461Z,11.60
2022-10-10T01:47:22.496Z,11.60
2022-10-10T01:47:58.702Z,11.60
2022-10-10T01:48:31.725Z,11.60
2022-10-10T01:49:03.787Z,11.60
2022-10-10T01:49:36.573Z,11.60
2022-10-10T01:50:12.179Z,11.60
2022-10-10T01:50:59.510Z,11.60
2022-10-10T01:51:48.662Z,11.60
2022-10-10T01:52:32.804Z,11.60
2022-10-10T01:53:12.480Z,11.50
2022-10-10T01:53:57.045Z,11.60
2022-10-10T01:54:38.675Z,11.60
2022-10-10T01:55:27.042Z,11.60
2022-10-10T01:56:06.678Z,11.60
2022-10-10T01:56:44.745Z,11.60
2022-10-10T01:57:22.108Z,11.60
2022-10-10T01:58:07.652Z,11.60
2022-10-10T01:58:54.376Z,11.60
2022-10-10T01:59:45.230Z,11.70
2022-10-10T02:00:18.264Z,11.70
2022-10-10T02:00:59.830Z,11.70
2022-10-10T02:01:36.865Z,11.70
2022-10-10T02:02:15.925Z,11.70
2022-10-10T02:02:54.692Z,11.70
2022-10-10T02:03:31.510Z,11.60
2022-10-10T02:04:09.545Z,11.60
2022-10-10T02:04:46.638Z,11.60
2022-10-10T02:05:25.634Z,11.60
2022-10-10T02:06:01.498Z,11.50
2022-10-10T02:06:40.896Z,11.50
2022-10-10T02:07:20.890Z,11.50
2022-10-10T02:07:57.654Z,11.50
2022-10-10T02:08:35.014Z,11.50
2022-10-10T02:09:12.416Z,11.60
2022-10-10T02:09:46.437Z,11.60
2022-10-10T02:10:23.833Z,11.60
2022-10-10T02:11:00.867Z,11.60
2022-10-10T02:11:35.282Z,11.60
2022-10-10T02:12:09.640Z,11.60
2022-10-10T02:12:42.756Z,11.60
2022-10-10T02:13:16.906Z,11.60
2022-10-10T02:13:53.948Z,11.70
2022-10-10T02:14:32.804Z,11.60
2022-10-10T02:15:10.192Z,11.60
2022-10-10T02:15:46.718Z,11.50
2022-10-10T02:16:22.673Z,11.50
2022-10-10T02:16:55.796Z,11.50
2022-10-10T02:17:27.922Z,11.50
2022-10-10T02:18:02.812Z,11.50
2022-10-10T02:18:36.037Z,11.50
2022-10-10T02:19:09.813Z,11.50
2022-10-10T02:19:45.715Z,11.50
2022-10-10T02:20:22.021Z,11.50
2022-10-10T02:20:54.270Z,11.30
2022-10-10T02:21:28.022Z,11.50
2022-10-10T02:22:01.077Z,11.50
2022-10-10T02:22:33.760Z,11.50
2022-10-10T02:23:07.846Z,11.40
2022-10-10T02:23:42.184Z,11.50
2022-10-10T02:24:15.036Z,11.50
2022-10-10T02:24:47.766Z,11.50
2022-10-10T02:25:22.401Z,11.50
2022-10-10T02:25:56.500Z,11.50
2022-10-10T02:26:30.085Z,11.50
2022-10-10T02:27:08.116Z,11.50
2022-10-10T02:27:44.708Z,11.50
2022-10-10T02:28:24.056Z,11.40
2022-10-10T02:29:00.933Z,11.40
2022-10-10T02:29:36.620Z,11.40
2022-10-10T02:30:10.078Z,11.40
2022-10-10T02:30:46.320Z,11.40
2022-10-10T02:31:26.907Z,11.40
2022-10-10T02:32:05.310Z,11.40
2022-10-10T02:32:41.825Z,11.50
2022-10-10T02:33:17.776Z,11.40
2022-10-10T02:33:53.705Z,11.40
2022-10-10T02:34:30.255Z,11.40
2022-10-10T02:35:08.140Z,11.40
2022-10-10T02:35:43.099Z,11.40
2022-10-10T02:36:18.271Z,11.40
2022-10-10T02:36:54.355Z,11.60
2022-10-10T02:37:27.554Z,11.50
2022-10-10T02:38:02.178Z,11.50
2022-10-10T02:38:34.123Z,11.50
2022-10-10T02:39:07.365Z,11.40
2022-10-10T02:39:43.344Z,11.50
2022-10-10T02:40:20.285Z,11.50
2022-10-10T02:40:53.044Z,11.50
2022-10-10T02:41:28.629Z,11.50
2022-10-10T02:42:00.807Z,11.50
2022-10-10T02:42:34.261Z,11.50
2022-10-10T02:43:08.769Z,11.50
2022-10-10T02:43:41.004Z,11.50
2022-10-10T02:44:14.874Z,11.50
2022-10-10T02:44:48.642Z,11.50
2022-10-10T02:45:22.045Z,11.50
2022-10-10T02:45:53.845Z,11.60
2022-10-10T02:46:26.602Z,11.50
2022-10-10T02:46:58.685Z,11.60
2022-10-10T02:47:30.478Z,11.60
2022-10-10T02:48:03.886Z,11.50
2022-10-10T02:48:35.728Z,11.70
2022-10-10T02:49:09.069Z,11.50
2022-10-10T02:49:42.269Z,11.50
2022-10-10T02:50:14.276Z,11.60
2022-10-10T02:50:46.352Z,11.50
2022-10-10T02:51:19.284Z,11.50
2022-10-10T02:51:51.093Z,11.50
2022-10-10T02:52:23.030Z,11.40
2022-10-10T02:52:55.882Z,11.50
2022-10-10T02:53:27.786Z,11.40
2022-10-10T02:53:59.917Z,11.40
2022-10-10T02:54:32.843Z,11.40
2022-10-10T02:55:05.561Z,11.40
2022-10-10T02:55:37.307Z,11.40
2022-10-10T02:56:10.077Z,11.40
2022-10-10T02:56:41.858Z,11.40
2022-10-10T02:57:13.752Z,11.40
2022-10-10T02:57:46.519Z,11.40
2022-10-10T02:58:19.070Z,11.40
2022-10-10T02:58:50.822Z,11.40
2022-10-10T02:59:25.155Z,11.40
2022-10-10T02:59:57.138Z,11.40
2022-10-10T03:00:28.923Z,11.40
2022-10-10T03:01:00.877Z,11.40
2022-10-10T03:01:33.711Z,11.50
2022-10-10T03:02:06.300Z,11.50
2022-10-10T03:02:38.289Z,11.50
2022-10-10T03:03:11.045Z,11.50
2022-10-10T03:03:42.832Z,11.60
2022-10-10T03:04:15.311Z,11.60
2022-10-10T03:04:48.132Z,11.60
2022-10-10T03:05:19.985Z,11.70
2022-10-10T03:05:51.792Z,11.70
2022-10-10T03:06:25.312Z,11.70
2022-10-10T03:06:57.140Z,11.70
2022-10-10T03:07:28.964Z,11.80
2022-10-10T03:08:01.764Z,11.80
2022-10-10T03:08:33.532Z,11.80
2022-10-10T03:09:05.861Z,11.80
2022-10-10T03:09:38.613Z,11.80
2022-10-10T03:10:10.520Z,11.90
2022-10-10T03:10:43.358Z,11.90
2022-10-10T03:11:15.113Z,11.90
2022-10-10T03:11:46.861Z,11.90
2022-10-10T03:12:19.639Z,11.90
2022-10-10T03:12:51.856Z,11.90
2022-10-10T03:13:24.184Z,11.90
2022-10-10T03:13:56.912Z,11.90
2022-10-10T03:14:30.117Z,11.90
2022-10-10T03:15:02.014Z,11.90
2022-10-10T03:15:34.800Z,11.90
2022-10-10T03:16:06.980Z,11.80
2022-10-10T03:16:38.784Z,11.80
2022-10-10T03:17:11.670Z,11.80
2022-10-10T03:17:43.837Z,11.80
2022-10-10T03:18:15.727Z,11.80
2022-10-10T03:18:48.440Z,11.80
2022-10-10T03:19:20.281Z,11.90
2022-10-10T03:19:52.049Z,11.90
2022-10-10T03:20:24.777Z,11.90
2022-10-10T03:20:56.740Z,11.90
2022-10-10T03:21:28.553Z,11.90
2022-10-10T03:22:01.304Z,11.90
2022-10-10T03:22:33.134Z,11.90
2022-10-10T03:23:04.928Z,11.90
2022-10-10T03:23:37.753Z,11.90
2022-10-10T03:24:09.553Z,11.90
2022-10-10T03:24:41.345Z,11.90
2022-10-10T03:25:14.056Z,11.90
2022-10-10T03:25:46.125Z,11.90
2022-10-10T03:26:17.902Z,11.90
2022-10-10T03:26:50.621Z,11.90
2022-10-10T03:27:22.389Z,11.90
2022-10-10T03:27:54.145Z,11.90
2022-10-10T03:28:26.907Z,11.90
2022-10-10T03:28:58.762Z,11.90
2022-10-10T03:29:31.982Z,11.90
2022-10-10T03:30:05.312Z,11.90
2022-10-10T03:30:37.570Z,11.90
2022-10-10T03:31:09.385Z,11.90
2022-10-10T03:31:42.134Z,12.00
2022-10-10T03:32:13.916Z,12.00
2022-10-10T03:32:45.657Z,12.00
2022-10-10T03:33:18.448Z,12.00
2022-10-10T03:33:50.240Z,12.00
2022-10-10T03:34:22.026Z,12.10
2022-10-10T03:34:53.947Z,12.10
2022-10-10T03:35:26.864Z,12.10
2022-10-10T03:35:58.681Z,12.10
2022-10-10T03:36:31.688Z,12.20
2022-10-10T03:37:03.502Z,12.20
2022-10-10T03:37:35.774Z,12.20
2022-10-10T03:38:07.895Z,12.30
2022-10-10T03:38:40.857Z,12.30
2022-10-10T03:39:12.803Z,12.30
2022-10-10T03:39:44.565Z,12.30
2022-10-10T03:40:17.453Z,12.30
2022-10-10T03:40:49.219Z,12.30
2022-10-10T03:41:21.506Z,12.30
2022-10-10T03:41:54.266Z,12.40
2022-10-10T03:42:26.032Z,12.40
2022-10-10T03:42:58.217Z,12.40
2022-10-10T03:43:31.005Z,12.40
2022-10-10T03:44:02.785Z,12.40
2022-10-10T03:44:36.661Z,12.40
2022-10-10T03:45:09.186Z,12.30
2022-10-10T03:45:44.241Z,12.40
2022-10-10T03:46:16.657Z,12.40
2022-10-10T03:46:48.511Z,12.40
2022-10-10T03:47:20.263Z,12.40
2022-10-10T03:47:53.018Z,12.30
2022-10-10T03:48:24.882Z,12.30
2022-10-10T03:48:56.657Z,12.40
2022-10-10T03:49:30.146Z,12.30
2022-10-10T03:50:01.996Z,12.30
2022-10-10T03:50:33.784Z,12.40
2022-10-10T03:51:07.042Z,12.40
2022-10-10T03:51:38.887Z,12.30
2022-10-10T03:52:10.674Z,12.40
2022-10-10T03:52:43.390Z,12.40
2022-10-10T03:53:15.232Z,12.40
2022-10-10T03:53:47.030Z,12.40
2022-10-10T03:54:19.815Z,12.40
2022-10-10T03:54:51.600Z,12.40
2022-10-10T03:55:23.410Z,12.40
2022-10-10T03:55:56.166Z,12.40
2022-10-10T03:56:27.995Z,12.40
2022-10-10T03:56:59.770Z,12.40
2022-10-10T03:57:32.510Z,12.40
2022-10-10T03:58:04.258Z,12.40
2022-10-10T03:58:36.048Z,12.40
2022-10-10T03:59:08.803Z,12.40
2022-10-10T03:59:41.923Z,12.30
2022-10-10T04:00:14.488Z,12.40
2022-10-10T04:00:54.582Z,12.30
2022-10-10T04:01:26.580Z,12.30
2022-10-10T04:01:58.485Z,12.30
2022-10-10T04:02:31.258Z,12.30
2022-10-10T04:03:06.185Z,12.30
2022-10-10T04:03:37.960Z,12.30
2022-10-10T04:04:10.843Z,12.30
2022-10-10T04:04:42.652Z,12.40
2022-10-10T04:05:14.447Z,12.40
2022-10-10T04:05:47.232Z,12.40
2022-10-10T04:06:19.178Z,12.40
2022-10-10T04:06:50.937Z,12.40
2022-10-10T04:07:23.641Z,12.40
2022-10-10T04:07:55.416Z,12.40
2022-10-10T04:08:28.192Z,12.50
2022-10-10T04:09:00.924Z,12.40
2022-10-10T04:09:32.701Z,12.40
2022-10-10T04:10:06.482Z,12.40
2022-10-10T04:10:39.320Z,12.40
2022-10-10T04:11:11.134Z,12.40
2022-10-10T04:11:43.307Z,12.40
2022-10-10T04:12:15.069Z,12.40
2022-10-10T04:12:47.940Z,12.40
2022-10-10T04:13:21.207Z,12.50
2022-10-10T04:13:53.013Z,12.40
2022-10-10T04:14:26.015Z,12.40
2022-10-10T04:14:59.178Z,12.40
2022-10-10T04:15:31.702Z,12.40
2022-10-10T04:16:04.654Z,12.50
2022-10-10T04:16:36.448Z,12.50
2022-10-10T04:17:08.637Z,12.50
2022-10-10T04:17:41.354Z,12.50
2022-10-10T04:18:13.141Z,12.60
2022-10-10T04:18:44.920Z,12.60
2022-10-10T04:19:16.724Z,12.60
2022-10-10T04:19:49.475Z,12.60
2022-10-10T04:20:21.411Z,12.60
2022-10-10T04:20:53.333Z,12.60
2022-10-10T04:21:26.087Z,12.60
2022-10-10T04:21:57.910Z,12.60
2022-10-10T04:22:29.688Z,12.60
2022-10-10T04:23:02.417Z,12.50
2022-10-10T04:23:34.918Z,12.50
2022-10-10T04:24:06.876Z,12.40
2022-10-10T04:24:39.756Z,12.40
2022-10-10T04:25:12.025Z,12.40
2022-10-10T04:25:44.214Z,12.30
2022-10-10T04:26:16.974Z,12.30
2022-10-10T04:26:48.753Z,12.30
2022-10-10T04:27:20.574Z,12.30
2022-10-10T04:27:53.611Z,12.20
2022-10-10T04:28:27.973Z,12.10
2022-10-10T04:28:59.870Z,12.00
2022-10-10T04:29:31.815Z,12.00
2022-10-10T04:30:07.467Z,12.00
2022-10-10T04:30:39.239Z,11.90
2022-10-10T04:31:11.613Z,11.90
2022-10-10T04:31:44.347Z,11.90
2022-10-10T04:32:16.111Z,11.90
2022-10-10T04:32:48.138Z,12.00
2022-10-10T04:33:20.974Z,12.00
2022-10-10T04:33:52.877Z,12.00
2022-10-10T04:34:24.874Z,12.00
2022-10-10T04:34:56.842Z,12.00
2022-10-10T04:35:29.662Z,12.00
2022-10-10T04:36:01.464Z,12.00
2022-10-10T04:36:33.361Z,12.00
2022-10-10T04:37:06.081Z,12.00
2022-10-10T04:37:37.860Z,12.00
2022-10-10T04:38:09.688Z,12.00
2022-10-10T04:38:43.174Z,11.90
2022-10-10T04:39:14.946Z,11.90
2022-10-10T04:39:46.733Z,12.00
2022-10-10T04:40:24.044Z,12.00
2022-10-10T04:40:58.146Z,12.00
2022-10-10T04:41:29.936Z,12.00
2022-10-10T04:42:02.742Z,12.00
2022-10-10T04:42:35.020Z,12.00
2022-10-10T04:43:06.855Z,12.00
2022-10-10T04:43:39.616Z,12.00
2022-10-10T04:44:11.363Z,12.00
2022-10-10T04:44:43.195Z,12.00
2022-10-10T04:45:16.503Z,12.10
2022-10-10T04:45:49.253Z,12.10
2022-10-10T04:46:21.084Z,12.10
2022-10-10T04:46:52.887Z,12.10
2022-10-10T04:47:25.644Z,12.10
2022-10-10T04:47:57.436Z,12.10
2022-10-10T04:48:29.343Z,12.10
2022-10-10T04:49:02.104Z,12.10
2022-10-10T04:49:33.885Z,12.10
2022-10-10T04:50:06.652Z,12.10
2022-10-10T04:50:40.223Z,12.10
2022-10-10T04:51:12.012Z,12.10
2022-10-10T04:51:43.783Z,12.10
2022-10-10T04:52:16.698Z,12.10
2022-10-10T04:52:48.901Z,12.00
2022-10-10T04:53:21.278Z,12.00
2022-10-10T04:53:54.030Z,12.00
2022-10-10T04:54:25.805Z,12.00
2022-10-10T04:54:57.682Z,12.00
2022-10-10T04:55:30.466Z,11.90
2022-10-10T04:56:02.265Z,11.90
2022-10-10T04:56:34.032Z,11.90
2022-10-10T04:57:06.842Z,11.90
2022-10-10T04:57:38.631Z,11.90
2022-10-10T04:58:10.400Z,11.90
2022-10-10T04:58:43.170Z,12.00
2022-10-10T04:59:14.933Z,11.90
2022-10-10T04:59:46.670Z,12.00
2022-10-10T05:00:20.942Z,12.00
2022-10-10T05:00:53.234Z,12.00
2022-10-10T05:01:25.163Z,12.00
2022-10-10T05:02:01.525Z,12.00
2022-10-10T05:02:33.773Z,12.00
2022-10-10T05:03:06.236Z,12.00
2022-10-10T05:03:38.982Z,12.00
2022-10-10T05:04:11.560Z,12.00
2022-10-10T05:04:43.317Z,12.00
2022-10-10T05:05:15.187Z,11.90
2022-10-10T05:05:48.117Z,11.90
2022-10-10T05:06:20.313Z,11.90
2022-10-10T05:06:53.056Z,11.90
2022-10-10T05:07:24.948Z,11.90
2022-10-10T05:07:56.802Z,11.90
2022-10-10T05:08:29.550Z,11.90
2022-10-10T05:09:01.354Z,11.90
2022-10-10T05:09:33.734Z,11.90
2022-10-10T05:10:06.745Z,11.90
2022-10-10T05:10:40.690Z,11.90
2022-10-10T05:11:12.466Z,11.90
2022-10-10T05:11:44.275Z,11.80
2022-10-10T05:12:17.383Z,11.90
2022-10-10T05:12:49.428Z,11.90
2022-10-10T05:13:21.536Z,11.90
2022-10-10T05:13:54.267Z,11.90
2022-10-10T05:14:26.383Z,11.90
2022-10-10T05:14:58.165Z,11.90
2022-10-10T05:15:33.825Z,11.90
2022-10-10T05:16:07.225Z,11.90
2022-10-10T05:16:39.022Z,11.90
2022-10-10T05:17:10.788Z,11.90
2022-10-10T05:17:43.506Z,11.80
2022-10-10T05:18:15.244Z,11.80
2022-10-10T05:18:47.048Z,11.70
2022-10-10T05:19:19.965Z,11.70
2022-10-10T05:19:52.210Z,11.70
2022-10-10T05:20:24.335Z,11.70
2022-10-10T05:21:02.557Z,11.70
2022-10-10T05:21:35.291Z,11.70
2022-10-10T05:22:07.258Z,11.60
2022-10-10T05:22:39.976Z,11.60
2022-10-10T05:23:11.729Z,11.60
2022-10-10T05:23:43.586Z,11.60
2022-10-10T05:24:16.313Z,11.60
2022-10-10T05:24:48.126Z,11.60
2022-10-10T05:25:20.094Z,11.60
2022-10-10T05:25:52.848Z,11.60
2022-10-10T05:26:24.599Z,11.60
2022-10-10T05:26:56.357Z,11.60
2022-10-10T05:27:29.769Z,11.60
2022-10-10T05:28:01.545Z,11.60
2022-10-10T05:28:35.150Z,11.60
2022-10-10T05:29:07.959Z,11.60
2022-10-10T05:29:39.720Z,11.60
2022-10-10T05:30:12.592Z,11.50
2022-10-10T05:30:46.750Z,11.60
2022-10-10T05:31:18.508Z,11.50
2022-10-10T05:31:50.301Z,11.50
2022-10-10T05:32:23.185Z,11.50
2022-10-10T05:32:54.964Z,11.50
2022-10-10T05:33:26.868Z,11.50
2022-10-10T05:33:58.700Z,11.50
2022-10-10T05:34:31.460Z,11.50
2022-10-10T05:35:04.159Z,11.50
2022-10-10T05:35:35.937Z,11.50
2022-10-10T05:36:11.195Z,11.60
2022-10-10T05:36:43.172Z,11.60
2022-10-10T05:37:15.999Z,11.60
2022-10-10T05:37:48.925Z,11.60
2022-10-10T05:38:20.672Z,11.60
2022-10-10T05:38:52.547Z,11.60
2022-10-10T05:39:25.840Z,11.60
2022-10-10T05:39:57.732Z,11.60
2022-10-10T05:40:29.513Z,11.60
2022-10-10T05:41:02.366Z,11.60
2022-10-10T05:41:34.201Z,11.70
2022-10-10T05:42:06.121Z,11.70
2022-10-10T05:42:38.889Z,11.70
2022-10-10T05:43:10.966Z,11.70
2022-10-10T05:43:42.757Z,11.70
2022-10-10T05:44:15.749Z,11.80
2022-10-10T05:44:47.613Z,11.70
2022-10-10T05:45:19.408Z,11.80
2022-10-10T05:45:53.982Z,11.80
2022-10-10T05:46:27.401Z,11.80
2022-10-10T05:46:59.444Z,11.80
2022-10-10T05:47:32.174Z,11.80
2022-10-10T05:48:04.117Z,11.80
2022-10-10T05:48:36.896Z,11.80
2022-10-10T05:49:08.718Z,11.80
2022-10-10T05:49:40.809Z,11.90
2022-10-10T05:50:26.213Z,11.90
2022-10-10T05:51:00.253Z,11.90
2022-10-10T05:51:32.069Z,11.90
2022-10-10T05:52:04.846Z,11.90
2022-10-10T05:52:36.618Z,11.90
2022-10-10T05:53:08.393Z,11.90
2022-10-10T05:53:41.144Z,11.80
2022-10-10T05:54:12.991Z,11.90
2022-10-10T05:54:44.955Z,11.90
2022-10-10T05:55:17.874Z,12.00
2022-10-10T05:55:49.833Z,11.90
2022-10-10T05:56:24.093Z,11.90
2022-10-10T05:56:56.999Z,11.90
2022-10-10T05:57:28.761Z,12.00
2022-10-10T05:58:00.598Z,12.00
2022-10-10T05:58:33.408Z,12.00
2022-10-10T05:59:05.244Z,12.00
2022-10-10T05:59:37.976Z,12.00
2022-10-10T06:00:10.848Z,12.00
2022-10-10T06:00:44.164Z,12.00
2022-10-10T06:01:18.379Z,12.00
2022-10-10T06:01:50.324Z,12.10
2022-10-10T06:02:22.164Z,12.10
2022-10-10T06:02:55.550Z,12.10
2022-10-10T06:03:27.606Z,12.10
2022-10-10T06:03:59.462Z,12.10
2022-10-10T06:04:32.317Z,12.10
2022-10-10T06:05:04.715Z,12.10
2022-10-10T06:05:37.138Z,12.10
2022-10-10T06:06:09.864Z,12.10
2022-10-10T06:06:41.762Z,12.10
2022-10-10T06:07:13.647Z,12.10
2022-10-10T06:08:04.539Z,12.10
2022-10-10T06:08:37.457Z,12.10
2022-10-10T06:09:10.308Z,12.10
2022-10-10T06:09:42.142Z,12.10
2022-10-10T06:10:13.930Z,12.10
2022-10-10T06:10:47.336Z,12.10
2022-10-10T06:11:20.497Z,12.10
2022-10-10T06:11:53.314Z,12.10
2022-10-10T06:12:25.139Z,12.10
2022-10-10T06:12:56.959Z,12.10
2022-10-10T06:13:29.786Z,12.20
2022-10-10T06:14:01.579Z,12.20
2022-10-10T06:14:33.471Z,12.20
2022-10-10T06:15:07.306Z,12.20
2022-10-10T06:15:39.100Z,12.20
2022-10-10T06:16:12.233Z,12.30
2022-10-10T06:16:45.868Z,12.30
2022-10-10T06:17:17.657Z,12.30
2022-10-10T06:17:50.441Z,12.30
2022-10-10T06:18:22.478Z,12.30
2022-10-10T06:18:56.550Z,12.30
2022-10-10T06:19:28.335Z,12.30
2022-10-10T06:20:00.149Z,12.30
2022-10-10T06:20:35.648Z,12.30
2022-10-10T06:21:08.309Z,12.40
2022-10-10T06:21:41.114Z,12.40
2022-10-10T06:22:12.956Z,12.50
2022-10-10T06:22:44.798Z,12.40
2022-10-10T06:23:18.055Z,12.40
2022-10-10T06:23:51.002Z,12.40
2022-10-10T06:24:22.813Z,12.50
2022-10-10T06:24:55.600Z,12.50
2022-10-10T06:25:39.924Z,12.50
2022-10-10T06:26:13.589Z,12.50
2022-10-10T06:26:45.417Z,12.50
2022-10-10T06:27:18.257Z,12.50
2022-10-10T06:27:50.064Z,12.50
2022-10-10T06:28:22.837Z,12.50
2022-10-10T06:28:55.625Z,12.50
2022-10-10T06:29:27.777Z,12.60
2022-10-10T06:29:59.818Z,12.60
2022-10-10T06:30:34.639Z,12.60
2022-10-10T06:31:08.294Z,12.60
2022-10-10T06:31:41.186Z,12.60
2022-10-10T06:32:14.360Z,12.70
2022-10-10T06:32:46.144Z,12.60
2022-10-10T06:33:19.587Z,12.70
2022-10-10T06:33:53.073Z,12.70
2022-10-10T06:34:25.921Z,12.70
2022-10-10T06:34:57.719Z,12.70
2022-10-10T06:35:29.650Z,12.70
2022-10-10T06:36:06.309Z,12.60
2022-10-10T06:36:38.083Z,12.70
2022-10-10T06:37:12.285Z,12.80
2022-10-10T06:37:44.159Z,12.70
2022-10-10T06:38:17.094Z,12.80
2022-10-10T06:38:49.816Z,12.70
2022-10-10T06:39:21.610Z,12.80
2022-10-10T06:39:53.553Z,12.80
2022-10-10T06:40:26.287Z,12.80
2022-10-10T06:41:02.156Z,12.80
2022-10-10T06:41:34.885Z,12.80
2022-10-10T06:42:06.705Z,12.80
2022-10-10T06:42:38.554Z,12.80
2022-10-10T06:43:12.854Z,12.80
2022-10-10T06:43:44.632Z,12.80
2022-10-10T06:44:18.306Z,12.80
2022-10-10T06:44:50.094Z,12.80
2022-10-10T06:45:21.847Z,12.90
2022-10-10T06:45:54.577Z,12.90
2022-10-10T06:46:26.460Z,12.90
2022-10-10T06:46:58.221Z,12.90
2022-10-10T06:47:32.572Z,12.90
2022-10-10T06:48:05.016Z,12.90
2022-10-10T06:48:37.959Z,12.90
2022-10-10T06:49:09.956Z,12.90
2022-10-10T06:49:41.766Z,12.90
2022-10-10T06:50:14.582Z,12.90
2022-10-10T06:50:56.280Z,12.90
2022-10-10T06:51:28.988Z,12.90
2022-10-10T06:52:00.797Z,12.90
2022-10-10T06:52:32.560Z,12.90
2022-10-10T06:53:05.823Z,13.00
2022-10-10T06:53:37.634Z,13.00
2022-10-10T06:54:11.786Z,13.00
2022-10-10T06:54:43.789Z,12.90
2022-10-10T06:55:15.735Z,12.90
2022-10-10T06:55:48.465Z,12.90
2022-10-10T06:56:24.949Z,12.90
2022-10-10T06:57:00.272Z,12.90
2022-10-10T06:57:32.132Z,12.90
2022-10-10T06:58:04.094Z,13.00
2022-10-10T06:58:36.909Z,13.00
2022-10-10T06:59:08.689Z,13.00
2022-10-10T06:59:40.518Z,13.00
2022-10-10T07:00:14.393Z,13.00
2022-10-10T07:00:50.005Z,13.00
2022-10-10T07:01:24.708Z,13.00
2022-10-10T07:01:56.578Z,13.00
2022-10-10T07:02:28.527Z,13.10
2022-10-10T07:03:02.612Z,13.10
2022-10-10T07:03:34.415Z,13.10
2022-10-10T07:04:07.207Z,13.10
2022-10-10T07:04:39.003Z,13.10
2022-10-10T07:05:12.066Z,13.20
2022-10-10T07:05:45.141Z,13.20
2022-10-10T07:06:18.157Z,13.20
2022-10-10T07:06:50.938Z,13.30
2022-10-10T07:07:22.700Z,13.30
2022-10-10T07:07:54.492Z,13.30
2022-10-10T07:08:28.052Z,13.30
2022-10-10T07:08:59.797Z,13.30
2022-10-10T07:09:32.676Z,13.30
2022-10-10T07:10:05.129Z,13.40
2022-10-10T07:10:36.916Z,13.40
2022-10-10T07:11:10.710Z,13.40
2022-10-10T07:11:45.269Z,13.50
2022-10-10T07:12:17.255Z,13.50
2022-10-10T07:12:50.022Z,13.50
2022-10-10T07:13:22.065Z,13.60
2022-10-10T07:13:54.109Z,13.60
2022-10-10T07:14:27.525Z,13.60
2022-10-10T07:14:59.317Z,13.70